createdAt,value
2019-03-30T00:02:14.802Z,7.55
2019-03-30T00:04:45.780Z,7.51
2019-03-30T00:07:16.882Z,7.49
2019-03-30T00:09:47.769Z,7.45
2019-03-30T00:12:18.627Z,7.45
2019-03-30T00:14:49.488Z,7.43
2019-03-30T00:17:20.371Z,7.44
2019-03-30T00:19:52.439Z,7.42
2019-03-30T00:22:23.305Z,7.39
2019-03-30T00:24:54.347Z,7.35
2019-03-30T00:27:25.296Z,7.32
2019-03-30T00:29:56.180Z,7.28
2019-03-30T00:32:27.183Z,7.25
2019-03-30T00:34:58.216Z,7.21
2019-03-30T00:37:29.234Z,7.18
2019-03-30T00:40:00.114Z,7.14
2019-03-30T00:42:31.037Z,7.11
2019-03-30T00:45:01.934Z,7.09
2019-03-30T00:47:32.805Z,7.07
2019-03-30T00:50:03.908Z,7.05
2019-03-30T00:52:34.875Z,7.01
2019-03-30T00:55:06.106Z,7.00
2019-03-30T00:57:37.078Z,6.98
2019-03-30T01:00:08.634Z,6.94
2019-03-30T01:02:39.695Z,6.93
2019-03-30T01:05:10.787Z,6.93
2019-03-30T01:07:41.812Z,6.92
2019-03-30T01:10:13.539Z,6.88
2019-03-30T01:12:44.437Z,6.86
2019-03-30T01:15:15.444Z,6.83
2019-03-30T01:17:46.478Z,6.82
2019-03-30T01:20:17.797Z,6.81
2019-03-30T01:22:48.760Z,6.80
2019-03-30T01:25:19.719Z,6.76
2019-03-30T01:27:50.743Z,6.76
2019-03-30T01:30:23.421Z,6.76
2019-03-30T01:32:54.455Z,6.75
2019-03-30T01:35:25.591Z,6.72
2019-03-30T01:37:56.685Z,6.70
2019-03-30T01:40:27.637Z,6.66
2019-03-30T01:42:58.541Z,6.64
2019-03-30T01:45:29.562Z,6.61
2019-03-30T01:48:00.512Z,6.56
2019-03-30T01:50:31.438Z,6.52
2019-03-30T01:53:02.471Z,6.52
2019-03-30T01:55:33.510Z,6.48
2019-03-30T01:58:04.357Z,6.44
2019-03-30T02:00:41.563Z,6.42
2019-03-30T02:03:19.424Z,6.39
2019-03-30T02:05:50.342Z,6.38
2019-03-30T02:08:21.188Z,6.37
2019-03-30T02:10:52.193Z,6.36
2019-03-30T02:13:23.212Z,6.34
2019-03-30T02:15:54.095Z,6.30
2019-03-30T02:18:25.201Z,6.29
2019-03-30T02:20:56.270Z,6.30
2019-03-30T02:23:27.271Z,6.29
2019-03-30T02:25:58.390Z,6.58
2019-03-30T02:28:29.596Z,6.50
2019-03-30T02:31:00.627Z,6.51
2019-03-30T02:33:31.702Z,6.57
2019-03-30T02:36:02.643Z,6.62
2019-03-30T02:38:33.780Z,6.64
2019-03-30T02:41:04.876Z,6.68
2019-03-30T02:43:35.945Z,6.70
2019-03-30T02:46:07.815Z,6.71
2019-03-30T02:48:38.743Z,6.72
2019-03-30T02:51:09.680Z,6.70
2019-03-30T02:53:40.780Z,6.67
2019-03-30T02:56:11.719Z,6.63
2019-03-30T02:58:42.976Z,6.59
2019-03-30T03:01:14.064Z,6.56
2019-03-30T03:03:45.220Z,6.53
2019-03-30T03:06:16.610Z,6.48
2019-03-30T03:08:47.657Z,6.45
2019-03-30T03:11:19.013Z,6.45
2019-03-30T03:13:50.127Z,6.42
2019-03-30T03:16:21.318Z,6.39
2019-03-30T03:18:52.621Z,6.37
2019-03-30T03:21:23.699Z,6.35
2019-03-30T03:23:54.782Z,6.33
2019-03-30T03:26:25.853Z,6.31
2019-03-30T03:28:56.943Z,6.28
2019-03-30T03:31:28.089Z,6.25
2019-03-30T03:33:59.139Z,6.24
2019-03-30T03:36:30.365Z,6.22
2019-03-30T03:39:01.472Z,6.18
2019-03-30T03:41:32.956Z,6.13
2019-03-30T03:44:04.099Z,6.08
2019-03-30T03:46:35.265Z,6.04
2019-03-30T03:49:07.554Z,6.02
2019-03-30T03:51:39.144Z,5.99
2019-03-30T03:54:13.683Z,5.95
2019-03-30T03:56:49.099Z,5.93
2019-03-30T03:59:21.659Z,5.89
2019-03-30T04:01:56.270Z,5.83
2019-03-30T04:04:28.988Z,5.80
2019-03-30T04:07:02.982Z,5.75
2019-03-30T04:09:36.332Z,5.73
2019-03-30T04:12:09.865Z,5.71
2019-03-30T04:14:45.342Z,5.68
2019-03-30T04:17:16.590Z,5.66
2019-03-30T04:19:47.878Z,5.66
2019-03-30T04:22:19.012Z,5.65
2019-03-30T04:24:50.155Z,5.62
2019-03-30T04:27:21.125Z,5.60
2019-03-30T04:29:52.193Z,5.58
2019-03-30T04:32:23.350Z,5.57
2019-03-30T04:34:54.664Z,5.55
2019-03-30T04:37:25.680Z,5.50
2019-03-30T04:39:56.795Z,5.46
2019-03-30T04:42:27.952Z,5.42
2019-03-30T04:44:59.187Z,5.39
2019-03-30T04:47:30.563Z,5.38
2019-03-30T04:50:01.730Z,5.36
2019-03-30T04:52:32.969Z,5.37
2019-03-30T04:55:04.309Z,5.32
2019-03-30T04:57:35.559Z,5.34
2019-03-30T05:00:08.126Z,5.36
2019-03-30T05:02:39.295Z,5.37
2019-03-30T05:05:10.793Z,5.38
2019-03-30T05:07:41.803Z,5.37
2019-03-30T05:10:13.125Z,5.37
2019-03-30T05:12:44.071Z,5.35
2019-03-30T05:15:15.167Z,5.35
2019-03-30T05:17:47.874Z,5.33
2019-03-30T05:20:18.993Z,5.32
2019-03-30T05:22:51.414Z,5.33
2019-03-30T05:25:22.579Z,5.36
2019-03-30T05:27:53.553Z,5.38
2019-03-30T05:30:24.619Z,5.41
2019-03-30T05:33:05.597Z,5.43
2019-03-30T05:35:28.375Z,5.44
2019-03-30T05:38:01.477Z,5.48
2019-03-30T05:40:32.511Z,5.52
2019-03-30T05:43:03.758Z,5.57
2019-03-30T05:45:35.180Z,5.63
2019-03-30T05:48:07.872Z,5.73
2019-03-30T05:50:39.396Z,5.80
2019-03-30T05:53:10.879Z,5.84
2019-03-30T05:55:42.220Z,5.89
2019-03-30T05:58:13.456Z,5.93
2019-03-30T06:00:44.973Z,5.96
2019-03-30T06:03:16.384Z,5.98
2019-03-30T06:05:47.759Z,6.02
2019-03-30T06:08:19.019Z,6.09
2019-03-30T06:10:50.321Z,6.17
2019-03-30T06:13:21.547Z,6.28
2019-03-30T06:15:52.823Z,6.41
2019-03-30T06:18:24.151Z,6.53
2019-03-30T06:20:55.495Z,6.68
2019-03-30T06:23:26.954Z,6.83
2019-03-30T06:25:58.404Z,6.96
2019-03-30T06:28:29.725Z,7.09
2019-03-30T06:31:01.098Z,7.23
2019-03-30T06:33:32.606Z,7.39
2019-03-30T06:36:03.909Z,7.51
2019-03-30T06:38:35.272Z,7.66
2019-03-30T06:41:07.896Z,7.80
2019-03-30T06:43:39.172Z,7.94
2019-03-30T06:46:10.494Z,8.09
2019-03-30T06:48:41.877Z,8.23
2019-03-30T06:51:13.141Z,8.36
2019-03-30T06:53:44.512Z,8.52
2019-03-30T06:56:15.685Z,8.66
2019-03-30T06:58:47.059Z,8.79
2019-03-30T07:04:04.887Z,9.23
2019-03-30T07:06:36.336Z,9.26
2019-03-30T07:09:09.033Z,9.33
2019-03-30T07:11:46.281Z,9.46
2019-03-30T07:14:17.636Z,9.56
2019-03-30T07:16:51.020Z,9.68
2019-03-30T07:19:24.252Z,9.79
2019-03-30T07:21:55.285Z,9.90
2019-03-30T07:24:26.404Z,10.05
2019-03-30T07:26:57.449Z,10.19
2019-03-30T07:29:28.414Z,10.38
2019-03-30T07:31:59.457Z,10.55
2019-03-30T07:34:30.435Z,10.74
2019-03-30T07:37:01.505Z,10.92
2019-03-30T07:39:32.456Z,11.10
2019-03-30T07:42:03.587Z,11.31
2019-03-30T07:44:35.058Z,11.45
2019-03-30T07:47:06.187Z,11.66
2019-03-30T07:49:37.310Z,11.83
2019-03-30T07:52:08.250Z,12.01
2019-03-30T07:54:41.622Z,12.18
2019-03-30T07:57:17.097Z,12.36
2019-03-30T07:59:45.555Z,12.51
2019-03-30T08:02:16.478Z,12.68
2019-03-30T08:04:47.555Z,12.83
2019-03-30T08:07:18.616Z,12.99
2019-03-30T08:09:49.632Z,13.15
2019-03-30T08:12:20.602Z,13.34
2019-03-30T08:14:51.693Z,13.47
2019-03-30T08:17:23.039Z,13.61
2019-03-30T08:19:54.060Z,13.74
2019-03-30T08:22:25.086Z,13.87
2019-03-30T08:24:56.281Z,14.03
2019-03-30T08:27:27.278Z,14.18
2019-03-30T08:29:58.244Z,14.30
2019-03-30T08:32:29.192Z,14.43
2019-03-30T08:35:00.282Z,14.62
2019-03-30T08:37:31.422Z,14.79
2019-03-30T08:40:02.547Z,14.94
2019-03-30T08:42:33.598Z,15.12
2019-03-30T08:45:05.247Z,15.29
2019-03-30T08:47:36.336Z,15.46
2019-03-30T08:50:08.457Z,15.62
2019-03-30T08:52:39.990Z,15.79
2019-03-30T08:55:11.615Z,15.92
2019-03-30T08:57:42.681Z,16.09
2019-03-30T09:00:15.597Z,16.24
2019-03-30T09:02:48.573Z,16.40
2019-03-30T09:05:19.620Z,16.57
2019-03-30T09:07:50.603Z,16.71
2019-03-30T09:10:21.582Z,16.81
2019-03-30T09:12:52.564Z,16.96
2019-03-30T09:15:23.561Z,17.19
2019-03-30T09:17:54.589Z,17.56
2019-03-30T09:20:25.567Z,17.64
2019-03-30T09:22:56.539Z,17.62
2019-03-30T09:25:27.511Z,17.66
2019-03-30T09:27:58.523Z,17.68
2019-03-30T09:30:29.615Z,17.68
2019-03-30T09:33:00.516Z,17.66
2019-03-30T09:35:31.447Z,17.71
2019-03-30T09:38:02.415Z,17.80
2019-03-30T09:40:33.545Z,17.91
2019-03-30T09:43:04.500Z,17.94
2019-03-30T09:45:35.736Z,17.98
2019-03-30T09:48:10.344Z,18.07
2019-03-30T09:50:41.319Z,18.20
2019-03-30T09:53:12.395Z,18.34
2019-03-30T09:55:43.417Z,18.49
2019-03-30T09:58:14.406Z,18.63
2019-03-30T10:00:45.521Z,18.81
2019-03-30T10:03:16.546Z,18.95
2019-03-30T10:05:47.650Z,19.08
2019-03-30T10:08:18.627Z,19.13
2019-03-30T10:10:52.754Z,19.14
2019-03-30T10:13:23.904Z,19.19
2019-03-30T10:15:54.862Z,19.29
2019-03-30T10:18:25.859Z,19.37
2019-03-30T10:20:57.872Z,19.37
2019-03-30T10:23:28.848Z,19.38
2019-03-30T10:25:59.890Z,19.48
2019-03-30T10:28:30.872Z,19.59
2019-03-30T10:33:41.657Z,19.91
2019-03-30T10:36:13.589Z,19.96
2019-03-30T10:38:44.547Z,20.09
2019-03-30T10:41:15.596Z,20.29
2019-03-30T10:43:46.657Z,20.44
2019-03-30T10:46:17.613Z,20.45
2019-03-30T10:48:48.490Z,20.48
2019-03-30T10:51:19.608Z,20.48
2019-03-30T10:53:50.479Z,20.55
2019-03-30T10:56:21.483Z,20.66
2019-03-30T10:58:52.440Z,20.77
2019-03-30T11:01:23.419Z,20.88
2019-03-30T11:03:54.546Z,21.13
2019-03-30T11:06:25.537Z,21.48
2019-03-30T11:08:56.513Z,21.84
2019-03-30T11:11:27.563Z,22.14
2019-03-30T11:13:58.453Z,22.27
2019-03-30T11:16:29.381Z,22.30
2019-03-30T11:19:00.576Z,22.35
2019-03-30T11:21:32.123Z,22.44
2019-03-30T11:24:06.426Z,22.51
2019-03-30T11:26:35.727Z,22.37
2019-03-30T11:29:09.700Z,22.18
2019-03-30T11:31:40.460Z,21.86
2019-03-30T11:34:14.250Z,21.72
2019-03-30T11:36:45.283Z,21.69
2019-03-30T11:39:21.317Z,21.65
2019-03-30T11:41:52.277Z,21.70
2019-03-30T11:44:23.206Z,21.81
2019-03-30T11:46:54.214Z,22.05
2019-03-30T11:49:25.261Z,22.22
2019-03-30T11:51:57.890Z,22.32
2019-03-30T11:54:28.856Z,22.51
2019-03-30T11:56:59.915Z,22.76
2019-03-30T11:59:30.894Z,22.99
2019-03-30T12:02:01.879Z,23.24
2019-03-30T12:04:34.385Z,23.57
2019-03-30T12:07:07.761Z,23.80
2019-03-30T12:09:38.820Z,23.93
2019-03-30T12:12:09.937Z,24.19
2019-03-30T12:14:40.977Z,24.30
2019-03-30T12:17:12.034Z,24.51
2019-03-30T12:19:43.006Z,24.82
2019-03-30T12:22:13.886Z,25.34
2019-03-30T12:24:44.998Z,25.56
2019-03-30T12:27:15.980Z,25.77
2019-03-30T12:29:47.049Z,26.19
2019-03-30T12:32:18.026Z,26.43
2019-03-30T12:34:50.754Z,26.52
2019-03-30T12:37:21.831Z,26.78
2019-03-30T12:39:52.972Z,26.91
2019-03-30T12:42:31.367Z,27.22
2019-03-30T12:45:02.448Z,27.50
2019-03-30T12:47:33.483Z,27.26
2019-03-30T12:50:04.845Z,27.04
2019-03-30T12:52:35.934Z,27.44
2019-03-30T12:55:07.068Z,27.69
2019-03-30T12:57:38.154Z,27.08
2019-03-30T13:00:09.999Z,27.00
2019-03-30T13:02:41.038Z,27.63
2019-03-30T13:05:12.126Z,28.04
2019-03-30T13:07:43.167Z,28.33
2019-03-30T13:10:14.333Z,28.62
2019-03-30T13:12:45.471Z,29.09
2019-03-30T13:15:16.787Z,29.48
2019-03-30T13:17:47.873Z,29.43
2019-03-30T13:20:19.211Z,28.38
2019-03-30T13:22:51.322Z,27.12
2019-03-30T13:25:24.164Z,26.13
2019-03-30T13:27:55.150Z,25.26
2019-03-30T13:30:26.405Z,24.73
2019-03-30T13:32:58.072Z,24.30
2019-03-30T13:35:29.053Z,23.97
2019-03-30T13:38:00.252Z,23.80
2019-03-30T13:40:31.499Z,23.61
2019-03-30T13:43:04.424Z,23.26
2019-03-30T13:45:37.972Z,22.97
2019-03-30T13:48:09.023Z,22.86
2019-03-30T13:50:42.191Z,23.35
2019-03-30T13:53:13.406Z,23.33
2019-03-30T13:55:48.616Z,23.60
2019-03-30T13:58:19.660Z,23.91
2019-03-30T14:00:50.872Z,24.03
2019-03-30T14:03:21.776Z,23.98
2019-03-30T14:05:55.507Z,23.52
2019-03-30T14:08:26.457Z,23.21
2019-03-30T14:10:57.564Z,22.87
2019-03-30T14:13:28.509Z,22.32
2019-03-30T14:15:59.609Z,21.99
2019-03-30T14:18:30.872Z,21.85
2019-03-30T14:21:02.011Z,21.62
2019-03-30T14:23:33.248Z,21.37
2019-03-30T14:26:04.352Z,21.16
2019-03-30T14:28:35.536Z,21.55
2019-03-30T14:31:06.707Z,21.82
2019-03-30T14:33:37.817Z,21.94
2019-03-30T14:36:08.844Z,22.01
2019-03-30T14:38:45.162Z,22.14
2019-03-30T14:41:41.239Z,22.38
2019-03-30T14:44:13.972Z,22.96
2019-03-30T14:46:47.456Z,22.87
2019-03-30T14:49:22.518Z,23.15
2019-03-30T14:51:56.769Z,23.09
2019-03-30T14:54:27.852Z,23.45
2019-03-30T14:56:58.885Z,23.61
2019-03-30T14:59:31.712Z,22.75
2019-03-30T15:02:02.857Z,22.14
2019-03-30T15:04:37.077Z,22.72
2019-03-30T15:07:10.535Z,23.52
2019-03-30T15:09:41.841Z,24.11
2019-03-30T15:12:17.973Z,24.76
2019-03-30T15:14:45.907Z,25.35
2019-03-30T15:17:18.510Z,25.71
2019-03-30T15:19:52.687Z,25.06
2019-03-30T15:22:25.976Z,23.64
2019-03-30T15:25:00.835Z,22.50
2019-03-30T15:27:33.499Z,22.53
2019-03-30T15:30:04.751Z,23.51
2019-03-30T15:32:39.956Z,24.80
2019-03-30T15:35:11.244Z,25.69
2019-03-30T15:37:45.451Z,25.93
2019-03-30T15:40:21.419Z,25.77
2019-03-30T15:42:55.629Z,25.94
2019-03-30T15:45:28.162Z,26.25
2019-03-30T15:47:59.319Z,26.64
2019-03-30T15:51:00.706Z,26.70
2019-03-30T15:53:03.631Z,26.67
2019-03-30T15:55:37.070Z,26.59
2019-03-30T15:58:15.859Z,26.59
2019-03-30T16:00:46.855Z,26.70
2019-03-30T16:03:19.029Z,26.76
2019-03-30T16:05:52.923Z,26.96
2019-03-30T16:08:24.303Z,27.12
2019-03-30T16:10:58.256Z,27.10
2019-03-30T16:13:33.720Z,27.31
2019-03-30T16:16:07.706Z,27.49
2019-03-30T16:18:38.856Z,27.31
2019-03-30T16:21:13.089Z,27.29
2019-03-30T16:23:45.416Z,27.45
2019-03-30T16:26:16.643Z,27.48
2019-03-30T16:28:58.814Z,27.39
2019-03-30T16:31:30.135Z,27.31
2019-03-30T16:34:01.452Z,26.78
2019-03-30T16:36:32.615Z,26.44
2019-03-30T16:39:07.684Z,26.57
2019-03-30T16:41:47.568Z,26.72
2019-03-30T16:44:19.192Z,26.67
2019-03-30T16:46:52.810Z,26.46
2019-03-30T16:49:36.010Z,26.22
2019-03-30T16:52:19.535Z,26.15
2019-03-30T16:55:14.519Z,26.25
2019-03-30T16:58:03.639Z,26.34
2019-03-30T17:00:55.397Z,26.11
2019-03-30T17:03:15.596Z,25.72
2019-03-30T17:05:47.052Z,25.25
2019-03-30T17:08:18.492Z,24.78
2019-03-30T17:10:58.334Z,24.43
2019-03-30T17:13:29.353Z,24.24
2019-03-30T17:16:00.520Z,23.88
2019-03-30T17:18:42.303Z,23.35
2019-03-30T17:21:15.051Z,22.82
2019-03-30T17:23:46.017Z,22.24
2019-03-30T17:26:17.024Z,21.59
2019-03-30T17:28:48.098Z,20.94
2019-03-30T17:31:20.750Z,20.56
2019-03-30T17:33:51.733Z,20.04
2019-03-30T17:36:22.710Z,19.51
2019-03-30T17:38:53.713Z,19.14
2019-03-30T17:41:24.773Z,18.63
2019-03-30T17:43:57.821Z,18.11
2019-03-30T17:46:29.201Z,17.64
2019-03-30T17:49:00.301Z,17.22
2019-03-30T17:51:31.693Z,16.82
2019-03-30T17:54:02.935Z,16.44
2019-03-30T17:56:34.167Z,16.15
2019-03-30T17:59:05.258Z,15.88
2019-03-30T18:01:36.394Z,15.57
2019-03-30T18:04:09.609Z,15.34
2019-03-30T18:06:40.289Z,15.11
2019-03-30T18:09:11.483Z,15.14
2019-03-30T18:11:42.489Z,14.83
2019-03-30T18:14:17.810Z,14.60
2019-03-30T18:16:49.076Z,14.42
2019-03-30T18:19:20.294Z,14.25
2019-03-30T18:21:51.311Z,14.11
2019-03-30T18:24:22.355Z,13.95
2019-03-30T18:26:53.557Z,13.81
2019-03-30T18:29:24.470Z,13.66
2019-03-30T18:31:55.511Z,13.50
2019-03-30T18:34:27.421Z,13.35
2019-03-30T18:36:59.989Z,13.20
2019-03-30T18:39:37.107Z,13.06
2019-03-30T18:42:15.230Z,12.95
2019-03-30T18:44:47.125Z,12.84
2019-03-30T18:47:22.678Z,12.74
2019-03-30T18:49:55.360Z,12.65
2019-03-30T18:52:26.787Z,12.55
2019-03-30T18:54:58.609Z,12.47
2019-03-30T18:57:31.822Z,12.39
2019-03-30T19:00:03.266Z,12.31
2019-03-30T19:02:37.090Z,12.21
2019-03-30T19:05:08.928Z,12.15
2019-03-30T19:07:43.192Z,12.06
2019-03-30T19:10:14.520Z,11.98
2019-03-30T19:12:48.625Z,11.89
2019-03-30T19:15:20.058Z,11.82
2019-03-30T19:17:52.764Z,11.73
2019-03-30T19:20:24.457Z,11.65
2019-03-30T19:22:56.272Z,11.57
2019-03-30T19:25:29.723Z,11.51
2019-03-30T19:28:00.620Z,11.43
2019-03-30T19:30:32.049Z,11.38
2019-03-30T19:33:03.596Z,11.32
2019-03-30T19:35:35.168Z,11.24
2019-03-30T19:38:10.803Z,11.16
2019-03-30T19:40:41.048Z,11.09
2019-03-30T19:43:12.390Z,10.99
2019-03-30T19:45:43.905Z,10.92
2019-03-30T19:48:15.456Z,10.85
2019-03-30T19:50:46.897Z,10.82
2019-03-30T19:53:18.422Z,10.76
2019-03-30T19:55:49.811Z,10.71
2019-03-30T19:58:21.096Z,10.68
2019-03-30T20:00:52.869Z,10.62
2019-03-30T20:03:27.334Z,10.57
2019-03-30T20:05:59.245Z,10.51
2019-03-30T20:08:30.962Z,10.47
2019-03-30T20:11:02.422Z,10.42
2019-03-30T20:13:33.916Z,10.40
2019-03-30T20:16:05.416Z,10.36
2019-03-30T20:18:40.653Z,10.30
2019-03-30T20:21:12.281Z,10.23
2019-03-30T20:23:45.466Z,10.17
2019-03-30T20:26:16.940Z,10.12
2019-03-30T20:28:48.270Z,10.08
2019-03-30T20:31:19.569Z,10.04
2019-03-30T20:33:50.912Z,9.99
2019-03-30T20:36:25.573Z,9.96
2019-03-30T20:38:59.224Z,9.90
2019-03-30T20:41:30.686Z,9.92
2019-03-30T20:44:04.382Z,9.86
2019-03-30T20:46:35.952Z,9.80
2019-03-30T20:49:08.083Z,9.76
2019-03-30T20:51:39.465Z,9.72
2019-03-30T20:54:11.048Z,9.68
2019-03-30T20:56:42.422Z,9.63
2019-03-30T20:59:16.741Z,9.60
2019-03-30T21:01:48.271Z,9.55
2019-03-30T21:04:20.464Z,9.47
2019-03-30T21:06:52.056Z,9.47
2019-03-30T21:09:23.347Z,9.65
2019-03-30T21:11:54.697Z,9.57
2019-03-30T21:14:28.617Z,9.48
2019-03-30T21:17:03.927Z,9.42
2019-03-30T21:19:35.407Z,9.36
2019-03-30T21:24:36.529Z,9.32
2019-03-30T21:27:07.913Z,9.23
2019-03-30T21:29:48.470Z,9.17
2019-03-30T21:32:12.237Z,9.10
2019-03-30T21:34:45.992Z,9.05
2019-03-30T21:37:20.494Z,8.99
2019-03-30T21:39:54.698Z,8.95
2019-03-30T21:42:25.988Z,8.89
2019-03-30T21:45:01.356Z,8.86
2019-03-30T21:47:32.923Z,8.80
2019-03-30T21:50:07.611Z,8.75
2019-03-30T21:52:39.132Z,8.71
2019-03-30T21:55:13.068Z,8.66
2019-03-30T21:57:48.797Z,8.61
2019-03-30T22:00:37.249Z,8.57
2019-03-30T22:03:09.953Z,8.53
2019-03-30T22:05:41.958Z,8.46
2019-03-30T22:08:17.381Z,8.44
2019-03-30T22:10:48.793Z,8.41
2019-03-30T22:13:21.637Z,8.35
2019-03-30T22:15:53.144Z,8.29
2019-03-30T22:18:25.469Z,8.27
2019-03-30T22:20:57.053Z,8.23
2019-03-30T22:23:28.480Z,8.23
2019-03-30T22:26:00.011Z,8.19
2019-03-30T22:28:31.264Z,8.17
2019-03-30T22:31:03.056Z,8.15
2019-03-30T22:33:41.409Z,8.13
2019-03-30T22:36:13.158Z,7.93
2019-03-30T22:41:19.759Z,8.09
2019-03-30T22:43:53.487Z,8.03
2019-03-30T22:46:27.793Z,8.02
2019-03-30T22:48:58.788Z,7.99
2019-03-30T22:51:29.721Z,7.96
2019-03-30T22:54:02.325Z,7.93
2019-03-30T22:56:33.286Z,7.89
2019-03-30T22:59:04.483Z,7.86
2019-03-30T23:01:35.831Z,7.82
2019-03-30T23:04:07.478Z,7.80
2019-03-30T23:06:38.573Z,7.76
2019-03-30T23:09:11.398Z,7.73
2019-03-30T23:11:42.777Z,7.71
2019-03-30T23:14:14.121Z,7.68
2019-03-30T23:16:45.225Z,7.68
2019-03-30T23:19:16.427Z,7.66
2019-03-30T23:21:47.536Z,7.63
2019-03-30T23:24:22.666Z,7.60
2019-03-30T23:26:56.617Z,7.58
2019-03-30T23:29:30.474Z,7.57
2019-03-30T23:32:01.524Z,7.56
2019-03-30T23:34:35.383Z,7.54
2019-03-30T23:37:07.615Z,7.52
2019-03-30T23:39:38.592Z,7.53
2019-03-30T23:42:09.733Z,7.51
2019-03-30T23:44:42.346Z,7.50
2019-03-30T23:47:13.495Z,7.49
2019-03-30T23:49:44.563Z,7.46
2019-03-30T23:52:15.587Z,7.43
2019-03-30T23:54:46.800Z,7.41
2019-03-30T23:57:17.761Z,7.38
2019-03-30T23:59:50.893Z,7.37
